Time;durP1;ratioP1;P1;durP2;ratioP2;P2;SDS_P1;SDS_P2;PMS_P1;PMS_P2;Temp;Humidity;BMP_temperature;BMP_pressure;BME280_temperature;BME280_humidity;BME280_pressure;Samples;Min_cycle;Max_cycle;Signal;HPM_P1;HPM_P2
2023/10/22 06:28:49;;;;;;;;;;;;;;;10.73;74.61;99154.50;1085751;54;2077;-80
2023/10/22 07:49:14;;;;;;;;;;;;;;;12.51;66.17;99231.09;1075979;54;2141;-84
2023/10/22 14:38:56;;;;;;;;;;;;;;;18.17;43.19;99346.94;1087520;47;1830;-77
2023/10/22 14:39:59;;;;;;;;;;;;;;;18.21;43.02;99345.50;1087481;54;1032;-78
2023/10/22 14:41:04;;;;;;;;;;;;;;;18.08;43.45;99342.81;1087448;47;1060;-78
2023/10/22 14:42:04;;;;;;;;;;;;;;;18.16;43.39;99348.00;1087428;54;1029;-77
2023/10/22 14:43:08;;;;;;;;;;;;;;;18.13;43.52;99340.31;1087523;54;1041;-78
2023/10/22 14:44:09;;;;;;;;;;;;;;;17.97;43.60;99343.44;1087299;54;1167;-79
2023/10/22 14:45:12;;;;;;;;;;;;;;;17.95;43.58;99342.81;1087921;54;1059;-81
2023/10/22 14:46:13;;;;;;;;;;;;;;;17.89;43.61;99348.00;1087848;47;1319;-78
2023/10/22 14:47:16;;;;;;;;;;;;;;;17.96;43.74;99352.56;1087947;54;1142;-79
2023/10/22 14:48:17;;;;;;;;;;;;;;;17.93;43.88;99349.25;1087927;54;1235;-78
2023/10/22 14:49:18;;;;;;;;;;;;;;;18.00;43.66;99343.03;1087897;47;1376;-79
2023/10/22 14:50:21;;;;;;;;;;;;;;;17.98;43.76;99343.25;1087860;47;1453;-79
2023/10/22 14:51:21;;;;;;;;;;;;;;;18.07;43.50;99351.97;1087905;47;1599;-78
2023/10/22 14:52:25;;;;;;;;;;;;;;;17.92;43.78;99352.16;1087886;47;1397;-78
2023/10/22 14:53:25;;;;;;;;;;;;;;;17.87;44.26;99347.38;1087979;54;983;-79
2023/10/22 14:54:26;;;;;;;;;;;;;;;17.87;44.18;99347.38;1088077;54;923;-78
2023/10/22 14:55:32;;;;;;;;;;;;;;;17.93;43.61;99351.97;1087922;54;955;-78
2023/10/22 14:56:32;;;;;;;;;;;;;;;17.96;43.65;99358.84;1087991;47;1314;-79
2023/10/22 14:57:36;;;;;;;;;;;;;;;18.02;43.18;99359.88;1087839;54;1623;-78
2023/10/22 14:58:36;;;;;;;;;;;;;;;17.93;43.33;99361.94;1087952;47;1834;-79
2023/10/22 14:59:40;;;;;;;;;;;;;;;18.00;43.35;99357.38;1087974;47;1520;-78
2023/10/22 15:00:40;;;;;;;;;;;;;;;17.81;43.77;99350.94;1087979;54;1013;-78
2023/10/22 15:01:43;;;;;;;;;;;;;;;17.95;43.39;99353.63;1087706;54;1032;-78
2023/10/22 15:02:45;;;;;;;;;;;;;;;17.89;43.74;99360.72;1087865;47;942;-78
2023/10/22 15:03:48;;;;;;;;;;;;;;;17.91;43.26;99359.44;1087894;54;925;-78
2023/10/22 15:04:48;;;;;;;;;;;;;;;17.70;43.80;99363.22;1087902;47;1019;-77
2023/10/22 15:05:52;;;;;;;;;;;;;;;17.67;43.38;99362.75;1088032;54;1025;-78
2023/10/22 15:06:52;;;;;;;;;;;;;;;17.81;43.57;99364.44;1087759;47;1430;-78
2023/10/22 15:07:56;;;;;;;;;;;;;;;17.78;43.40;99368.41;1087972;54;1032;-79
2023/10/22 15:08:56;;;;;;;;;;;;;;;17.84;43.67;99364.03;1087907;54;991;-78
2023/10/22 15:10:01;;;;;;;;;;;;;;;17.80;43.60;99368.19;1087828;47;1015;-78
2023/10/22 15:11:04;;;;;;;;;;;;;;;17.78;43.91;99363.00;1087885;54;1100;-78
2023/10/22 15:12:08;;;;;;;;;;;;;;;17.68;44.40;99361.72;1087883;54;1020;-78
2023/10/22 15:13:09;;;;;;;;;;;;;;;17.62;44.54;99371.50;1087901;54;1208;-79
2023/10/22 15:14:12;;;;;;;;;;;;;;;17.68;44.56;99367.13;1087834;54;1212;-79
2023/10/22 15:15:13;;;;;;;;;;;;;;;17.67;44.42;99366.31;1087968;54;1016;-78
2023/10/22 15:16:16;;;;;;;;;;;;;;;17.71;44.48;99364.03;1088001;54;1328;-78
2023/10/22 15:17:17;;;;;;;;;;;;;;;17.56;44.63;99362.38;1088078;54;966;-78
2023/10/22 15:18:21;;;;;;;;;;;;;;;17.58;44.67;99370.28;1087919;54;1866;-79
2023/10/22 15:19:21;;;;;;;;;;;;;;;17.52;44.82;99365.69;1087976;54;954;-79
2023/10/22 15:20:24;;;;;;;;;;;;;;;17.35;44.91;99360.69;1088010;54;1042;-79
2023/10/22 15:21:25;;;;;;;;;;;;;;;17.35;45.17;99365.25;1087947;54;1010;-79
2023/10/22 15:22:28;;;;;;;;;;;;;;;17.43;45.12;99362.34;1087930;47;1319;-79
2023/10/22 15:23:29;;;;;;;;;;;;;;;17.44;45.06;99358.63;1087967;54;1030;-79
2023/10/22 15:24:32;;;;;;;;;;;;;;;17.38;45.29;99365.69;1087956;54;1001;-79
2023/10/22 15:25:33;;;;;;;;;;;;;;;17.36;45.29;99361.53;1087985;54;1030;-78
2023/10/22 15:26:39;;;;;;;;;;;;;;;17.32;45.75;99361.09;1087917;54;1270;-78
2023/10/22 15:27:40;;;;;;;;;;;;;;;17.25;45.43;99369.19;1088057;54;1025;-78
2023/10/22 15:28:44;;;;;;;;;;;;;;;17.23;45.62;99367.75;1088316;54;998;-79
2023/10/22 15:29:44;;;;;;;;;;;;;;;17.21;45.81;99373.31;1088409;54;1079;-79
2023/10/22 15:30:48;;;;;;;;;;;;;;;17.13;45.97;99374.38;1088512;54;952;-80
2023/10/22 15:31:49;;;;;;;;;;;;;;;17.14;46.28;99380.59;1088515;54;1135;-79
2023/10/22 15:32:52;;;;;;;;;;;;;;;17.11;46.16;99380.97;1088494;47;1027;-77
2023/10/22 15:33:53;;;;;;;;;;;;;;;17.05;46.41;99381.81;1088549;54;1024;-79
2023/10/22 15:34:56;;;;;;;;;;;;;;;17.02;46.85;99382.22;1088122;54;1036;-78
2023/10/22 15:35:57;;;;;;;;;;;;;;;17.08;46.73;99378.72;1087906;54;1305;-79
2023/10/22 15:37:00;;;;;;;;;;;;;;;17.12;46.62;99379.94;1087987;54;1065;-78
2023/10/22 15:38:02;;;;;;;;;;;;;;;17.08;46.64;99384.13;1087900;47;1881;-79
2023/10/22 15:39:05;;;;;;;;;;;;;;;16.94;46.87;99391.34;1087832;47;1065;-79
2023/10/22 15:40:07;;;;;;;;;;;;;;;17.02;46.89;99388.47;1087798;54;1057;-78
2023/10/22 15:41:10;;;;;;;;;;;;;;;16.92;46.94;99388.78;1087855;54;991;-79
2023/10/22 15:42:14;;;;;;;;;;;;;;;16.93;47.37;99386.94;1087755;47;1521;-78
2023/10/22 15:43:17;;;;;;;;;;;;;;;16.91;47.18;99389.00;1087771;47;1287;-78
2023/10/22 15:44:18;;;;;;;;;;;;;;;16.91;47.41;99389.00;1087698;47;1522;-78
2023/10/22 15:45:21;;;;;;;;;;;;;;;16.84;47.48;99391.66;1087647;47;1401;-78
2023/10/22 15:46:22;;;;;;;;;;;;;;;16.90;47.61;99390.03;1087694;47;1481;-78
2023/10/22 15:47:25;;;;;;;;;;;;;;;16.86;47.40;99391.50;1087719;47;1037;-79
2023/10/22 15:48:30;;;;;;;;;;;;;;;16.84;47.47;99387.13;1087711;47;1615;-79
2023/10/22 15:49:33;;;;;;;;;;;;;;;16.81;47.80;99397.50;1087743;47;1029;-79
2023/10/22 15:50:39;;;;;;;;;;;;;;;16.82;47.84;99397.28;1087742;54;993;-78
2023/10/22 15:51:43;;;;;;;;;;;;;;;16.78;47.68;99403.28;1087704;54;1055;-78
2023/10/22 15:52:43;;;;;;;;;;;;;;;16.77;47.67;99394.34;1087676;54;990;-78
2023/10/22 15:53:44;;;;;;;;;;;;;;;16.76;47.77;99399.94;1087749;54;1010;-78
2023/10/22 15:54:47;;;;;;;;;;;;;;;16.69;48.13;99398.06;1087770;47;1055;-78
2023/10/22 15:55:48;;;;;;;;;;;;;;;16.75;48.04;99398.28;1087863;54;971;-79
2023/10/22 15:56:51;;;;;;;;;;;;;;;16.81;48.06;99400.19;1087692;54;1134;-78
2023/10/22 15:57:55;;;;;;;;;;;;;;;16.86;47.90;99397.72;1087632;47;1495;-78
2023/10/22 15:58:58;;;;;;;;;;;;;;;16.84;47.92;99397.06;1087643;54;1834;-79
2023/10/22 15:59:59;;;;;;;;;;;;;;;16.87;47.78;99398.53;1087734;54;1029;-78
2023/10/22 16:01:03;;;;;;;;;;;;;;;16.81;48.15;99398.31;1087682;48;1469;-78
2023/10/22 16:02:05;;;;;;;;;;;;;;;16.76;48.10;99392.69;1087490;54;1038;-78
2023/10/22 16:03:08;;;;;;;;;;;;;;;16.68;48.41;99392.84;1087736;54;1152;-78
2023/10/22 16:04:09;;;;;;;;;;;;;;;16.66;48.43;99398.44;1087773;47;1019;-78
2023/10/22 16:05:12;;;;;;;;;;;;;;;16.66;48.61;99409.25;1087532;47;997;-78
2023/10/22 16:06:12;;;;;;;;;;;;;;;16.61;48.60;99403.63;1087739;54;1283;-79
2023/10/22 16:07:16;;;;;;;;;;;;;;;16.58;49.06;99403.19;1087781;54;1026;-79
2023/10/22 16:08:16;;;;;;;;;;;;;;;16.58;48.74;99403.19;1087699;54;1032;-80
2023/10/22 16:09:20;;;;;;;;;;;;;;;16.60;48.67;99404.66;1087679;54;1112;-79
2023/10/22 16:10:20;;;;;;;;;;;;;;;16.63;48.65;99414.22;1087734;47;1021;-79
2023/10/22 16:11:24;;;;;;;;;;;;;;;16.66;48.70;99411.94;1087656;47;1016;-78
2023/10/22 16:12:26;;;;;;;;;;;;;;;16.69;49.01;99414.25;1087707;54;1012;-78
2023/10/22 16:13:32;;;;;;;;;;;;;;;16.72;48.98;99412.19;1087697;54;1292;-79
2023/10/22 16:14:33;;;;;;;;;;;;;;;16.72;49.05;99410.31;1087820;54;1023;-78
2023/10/22 16:15:36;;;;;;;;;;;;;;;16.63;50.02;99414.22;1087792;54;1026;-80
2023/10/22 16:16:37;;;;;;;;;;;;;;;16.56;50.38;99406.09;1087912;54;1273;-78
2023/10/22 16:17:40;;;;;;;;;;;;;;;16.55;50.12;99409.81;1088310;54;952;-79
2023/10/22 16:18:43;;;;;;;;;;;;;;;16.52;49.94;99411.03;1087848;47;1849;-79
2023/10/22 16:19:43;;;;;;;;;;;;;;;16.47;50.81;99415.38;1087813;54;1012;-79
2023/10/22 16:20:47;;;;;;;;;;;;;;;16.47;50.36;99412.66;1087915;47;1449;-79
2023/10/22 16:21:47;;;;;;;;;;;;;;;16.50;49.95;99420.38;1087778;54;1011;-79
2023/10/22 16:22:51;;;;;;;;;;;;;;;16.49;50.37;99419.53;1087753;54;1004;-79
2023/10/22 16:23:51;;;;;;;;;;;;;;;16.46;50.37;99416.41;1087773;54;1007;-78
2023/10/22 16:24:54;;;;;;;;;;;;;;;16.49;50.12;99421.41;1087700;47;1013;-78
2023/10/22 16:25:55;;;;;;;;;;;;;;;16.48;50.47;99420.56;1087626;54;1326;-79
2023/10/22 16:26:58;;;;;;;;;;;;;;;16.49;50.39;99421.41;1087683;54;920;-79
2023/10/22 16:27:59;;;;;;;;;;;;;;;16.48;50.25;99419.75;1087724;54;1016;-78
2023/10/22 16:29:04;;;;;;;;;;;;;;;16.49;50.33;99429.50;1087689;54;934;-78
2023/10/22 16:30:06;;;;;;;;;;;;;;;16.46;50.36;99424.50;1087717;54;1009;-78
2023/10/22 16:31:09;;;;;;;;;;;;;;;16.42;50.76;99431.34;1087640;54;1042;-77
2023/10/22 16:32:10;;;;;;;;;;;;;;;16.38;50.86;99433.59;1087606;47;1480;-78
2023/10/22 16:33:12;;;;;;;;;;;;;;;16.36;50.89;99433.78;1087634;54;1013;-78
2023/10/22 16:34:15;;;;;;;;;;;;;;;16.30;50.95;99423.78;1087586;47;1039;-78
2023/10/22 16:35:16;;;;;;;;;;;;;;;16.20;51.92;99432.22;1087663;54;1014;-78
2023/10/22 16:36:20;;;;;;;;;;;;;;;16.18;51.98;99428.91;1087637;47;1309;-78
2023/10/22 16:37:20;;;;;;;;;;;;;;;16.14;52.07;99430.31;1087670;54;1024;-78
2023/10/22 16:38:23;;;;;;;;;;;;;;;16.09;52.46;99426.53;1087642;54;994;-78
2023/10/22 16:39:26;;;;;;;;;;;;;;;16.10;51.83;99439.84;1087676;54;993;-78
2023/10/22 16:40:27;;;;;;;;;;;;;;;16.03;52.42;99437.09;1087666;54;1102;-78
2023/10/22 16:41:30;;;;;;;;;;;;;;;16.01;52.67;99435.63;1087716;54;966;-78
2023/10/22 16:42:31;;;;;;;;;;;;;;;15.94;52.88;99443.63;1087420;47;1038;-77
2023/10/22 16:43:34;;;;;;;;;;;;;;;15.91;52.91;99435.94;1087504;54;1015;-77
2023/10/22 16:44:37;;;;;;;;;;;;;;;15.93;52.76;99433.03;1087518;47;1555;-78
2023/10/22 16:45:47;;;;;;;;;;;;;;;15.89;52.75;99436.13;1087558;47;1049;-78
2023/10/22 16:46:47;;;;;;;;;;;;;;;15.93;52.29;99439.28;1087538;47;1232;-78
2023/10/22 16:47:51;;;;;;;;;;;;;;;15.94;52.50;99440.09;1087555;54;1020;-78
2023/10/22 16:48:52;;;;;;;;;;;;;;;15.95;52.54;99448.00;1087600;47;1030;-78
2023/10/22 16:49:56;;;;;;;;;;;;;;;15.96;52.36;99444.28;1087536;54;945;-78
2023/10/22 16:50:59;;;;;;;;;;;;;;;15.96;52.33;99449.69;1087661;47;1031;-78
2023/10/22 16:52:03;;;;;;;;;;;;;;;15.98;52.42;99442.19;1087606;54;998;-78
2023/10/22 16:53:03;;;;;;;;;;;;;;;15.97;52.79;99453.19;1087534;47;1474;-77
2023/10/22 16:54:04;;;;;;;;;;;;;;;15.95;53.63;99450.69;1087531;54;1027;-78
2023/10/22 16:55:08;;;;;;;;;;;;;;;15.89;52.78;99444.22;1087574;47;976;-78
2023/10/22 16:56:09;;;;;;;;;;;;;;;15.90;53.06;99450.44;1087638;47;1287;-78
2023/10/22 16:57:12;;;;;;;;;;;;;;;15.81;53.91;99449.72;1087564;54;970;-78
2023/10/22 16:58:12;;;;;;;;;;;;;;;15.72;54.39;99457.09;1087572;54;1022;-77
2023/10/22 16:59:16;;;;;;;;;;;;;;;15.71;53.83;99457.28;1087557;47;1852;-78
2023/10/22 17:00:19;;;;;;;;;;;;;;;15.69;54.32;99454.78;1087657;54;1008;-78
2023/10/22 17:01:22;;;;;;;;;;;;;;;15.70;53.74;99448.34;1087309;47;1454;-77
2023/10/22 17:02:23;;;;;;;;;;;;;;;15.64;54.58;99451.84;1087490;47;1440;-78
2023/10/22 17:03:26;;;;;;;;;;;;;;;15.59;54.64;99457.78;1087609;54;1013;-78
2023/10/22 17:04:27;;;;;;;;;;;;;;;15.62;54.06;99456.56;1087666;54;992;-77
2023/10/22 17:05:30;;;;;;;;;;;;;;;15.52;55.66;99459.59;1087542;47;1463;-78
2023/10/22 17:06:30;;;;;;;;;;;;;;;15.53;54.78;99458.56;1087621;54;1274;-78
2023/10/22 17:07:31;;;;;;;;;;;;;;;15.53;54.75;99460.41;1087521;54;1031;-78
2023/10/22 17:08:35;;;;;;;;;;;;;;;15.50;55.54;99466.19;1087623;54;1033;-78
2023/10/22 17:09:36;;;;;;;;;;;;;;;15.48;55.12;99460.16;1087558;54;968;-77
2023/10/22 17:10:39;;;;;;;;;;;;;;;15.51;55.02;99470.53;1087599;54;954;-77
2023/10/22 17:11:40;;;;;;;;;;;;;;;15.50;54.93;99466.19;1087622;54;1038;-78
2023/10/22 17:12:43;;;;;;;;;;;;;;;15.49;54.95;99467.22;1087447;47;1453;-77
2023/10/22 17:13:45;;;;;;;;;;;;;;;15.47;55.85;99472.78;1087497;47;1480;-77
2023/10/22 17:14:46;;;;;;;;;;;;;;;15.48;55.37;99468.25;1087508;46;1376;-78
2023/10/22 17:15:52;;;;;;;;;;;;;;;15.46;55.14;99471.13;1087538;54;982;-77
2023/10/22 17:16:52;;;;;;;;;;;;;;;15.43;55.52;99472.34;1087502;47;1426;-77
2023/10/22 17:17:56;;;;;;;;;;;;;;;15.41;56.04;99477.06;1087546;54;1185;-77
2023/10/22 17:18:56;;;;;;;;;;;;;;;15.40;55.37;99479.97;1087515;47;1832;-78
2023/10/22 17:19:59;;;;;;;;;;;;;;;15.40;55.31;99485.34;1087554;54;1014;-77
2023/10/22 17:21:02;;;;;;;;;;;;;;;15.40;55.64;99483.47;1087569;54;1028;-77
2023/10/22 17:22:05;;;;;;;;;;;;;;;15.40;55.39;99483.47;1087596;47;1027;-77
2023/10/22 17:23:06;;;;;;;;;;;;;;;15.37;55.39;99483.88;1087652;47;1045;-78
2023/10/22 17:24:10;;;;;;;;;;;;;;;15.28;56.02;99490.41;1087597;54;1359;-77
2023/10/22 17:25:10;;;;;;;;;;;;;;;15.21;56.12;99489.50;1087512;47;1031;-77
2023/10/22 17:26:13;;;;;;;;;;;;;;;15.15;56.03;99496.47;1087538;54;1270;-77
2023/10/22 17:27:14;;;;;;;;;;;;;;;15.07;56.64;99494.72;1087522;47;1002;-78
2023/10/22 17:28:17;;;;;;;;;;;;;;;15.02;56.43;99496.28;1087511;54;1048;-78
2023/10/22 17:29:18;;;;;;;;;;;;;;;14.97;56.76;99494.97;1087612;54;1050;-78
2023/10/22 17:30:21;;;;;;;;;;;;;;;14.94;56.87;99499.91;1087794;54;994;-78
2023/10/22 17:31:26;;;;;;;;;;;;;;;14.89;57.00;99499.63;1087494;47;1256;-78
2023/10/22 17:32:32;;;;;;;;;;;;;;;14.89;56.82;99502.34;1087506;54;990;-78
2023/10/22 17:33:32;;;;;;;;;;;;;;;14.83;56.98;99503.91;1087564;54;1166;-77
2023/10/22 17:34:36;;;;;;;;;;;;;;;14.75;57.42;99509.38;1087580;54;1014;-78
2023/10/22 17:35:36;;;;;;;;;;;;;;;14.73;57.15;99498.81;1087627;54;994;-78
2023/10/22 17:36:40;;;;;;;;;;;;;;;14.73;57.10;99508.72;1087529;54;1239;-78
2023/10/22 17:37:41;;;;;;;;;;;;;;;14.69;57.24;99513.66;1087602;54;1073;-78
2023/10/22 17:38:44;;;;;;;;;;;;;;;14.67;57.48;99504.91;1087508;47;1278;-79
2023/10/22 17:39:45;;;;;;;;;;;;;;;14.61;57.64;99511.84;1087568;54;1048;-78
2023/10/22 17:40:48;;;;;;;;;;;;;;;14.55;57.97;99517.97;1087541;54;954;-77
2023/10/22 17:41:49;;;;;;;;;;;;;;;14.48;58.19;99520.53;1087542;47;1077;-81
2023/10/22 17:42:49;;;;;;;;;;;;;;;14.50;57.89;99513.13;1087543;54;1111;-78
2023/10/22 17:43:53;;;;;;;;;;;;;;;14.48;58.03;99525.94;1087487;54;1020;-78
2023/10/22 17:44:53;;;;;;;;;;;;;;;14.39;58.65;99520.81;1087523;54;1173;-79
2023/10/22 17:45:57;;;;;;;;;;;;;;;14.33;58.96;99530.44;1087419;54;1278;-78
2023/10/22 17:47:01;;;;;;;;;;;;;;;14.31;59.16;99527.91;1087720;54;1029;-78
2023/10/22 17:48:04;;;;;;;;;;;;;;;14.29;59.13;99523.75;1087542;47;1016;-78
2023/10/22 17:49:04;;;;;;;;;;;;;;;14.19;59.35;99527.53;1087634;54;1127;-78
2023/10/22 17:50:08;;;;;;;;;;;;;;;14.15;59.89;99523.53;1087542;47;1110;-78
2023/10/22 17:51:11;;;;;;;;;;;;;;;14.10;60.02;99528.59;1087500;47;1413;-78
2023/10/22 17:52:14;;;;;;;;;;;;;;;14.10;59.66;99531.28;1087470;54;998;-79
2023/10/22 17:53:17;;;;;;;;;;;;;;;14.05;60.07;99528.34;1087549;54;1019;-78
2023/10/22 17:54:21;;;;;;;;;;;;;;;14.04;60.35;99529.34;1087439;47;1494;-79
2023/10/22 17:55:21;;;;;;;;;;;;;;;14.06;59.80;99529.16;1087736;47;954;-79
2023/10/22 17:56:25;;;;;;;;;;;;;;;14.01;60.22;99532.38;1087831;54;1246;-79
2023/10/22 17:57:26;;;;;;;;;;;;;;;14.01;60.32;99535.06;1087875;47;993;-80
2023/10/22 17:58:27;;;;;;;;;;;;;;;14.01;60.20;99537.75;1087703;54;995;-79
2023/10/22 17:59:30;;;;;;;;;;;;;;;13.98;60.49;99535.44;1087788;47;1849;-78
2023/10/22 18:00:31;;;;;;;;;;;;;;;13.95;60.51;99542.00;1087879;54;946;-80
2023/10/22 18:01:35;;;;;;;;;;;;;;;13.89;60.84;99534.66;1087958;47;1472;-78
2023/10/22 18:02:38;;;;;;;;;;;;;;;13.85;61.22;99536.00;1088077;47;964;-78
2023/10/22 18:03:48;;;;;;;;;;;;;;;13.83;61.40;99538.06;1088347;54;1095;-78
2023/10/22 18:04:49;;;;;;;;;;;;;;;13.81;61.44;99538.22;1088326;54;1002;-79
2023/10/22 18:05:52;;;;;;;;;;;;;;;13.81;61.33;99537.41;1088075;54;931;-79
2023/10/22 18:06:53;;;;;;;;;;;;;;;13.83;61.18;99541.56;1088098;54;1351;-78
2023/10/22 18:07:56;;;;;;;;;;;;;;;13.85;60.95;99539.56;1088178;54;1045;-79
2023/10/22 18:08:58;;;;;;;;;;;;;;;13.87;60.86;99536.69;1088266;54;1014;-78
2023/10/22 18:10:02;;;;;;;;;;;;;;;13.92;61.06;99538.81;1088116;47;1597;-79
2023/10/22 18:11:03;;;;;;;;;;;;;;;13.91;61.01;99537.16;1088125;51;1053;-78
2023/10/22 18:12:04;;;;;;;;;;;;;;;13.93;60.87;99532.44;1088221;54;1203;-78
2023/10/22 18:13:07;;;;;;;;;;;;;;;13.95;61.13;99527.72;1088233;47;1015;-79
2023/10/22 18:14:08;;;;;;;;;;;;;;;13.95;60.92;99538.47;1088188;54;1129;-81
2023/10/22 18:15:12;;;;;;;;;;;;;;;13.94;60.97;99545.69;1088214;47;1139;-79
2023/10/22 18:16:17;;;;;;;;;;;;;;;13.96;61.14;99545.53;1088149;54;1291;-78
2023/10/22 18:17:20;;;;;;;;;;;;;;;13.98;61.33;99543.50;1088158;54;1024;-78
2023/10/22 18:18:23;;;;;;;;;;;;;;;13.96;61.23;99543.66;1088195;54;1066;-79
2023/10/22 18:19:27;;;;;;;;;;;;;;;13.98;61.51;99543.50;1088118;47;1864;-78
2023/10/22 18:20:27;;;;;;;;;;;;;;;13.95;62.19;99555.44;1088333;47;1011;-80
2023/10/22 18:21:31;;;;;;;;;;;;;;;13.88;62.48;99549.09;1088816;54;993;-81
2023/10/22 18:22:32;;;;;;;;;;;;;;;13.87;62.55;99552.78;1088743;54;1038;-79
2023/10/22 18:23:35;;;;;;;;;;;;;;;13.86;62.45;99543.91;1088761;47;1027;-80
2023/10/22 18:24:37;;;;;;;;;;;;;;;13.85;62.50;99550.31;1088771;54;1039;-79
2023/10/22 18:25:38;;;;;;;;;;;;;;;13.84;63.02;99551.31;1088559;47;1448;-79
2023/10/22 18:26:41;;;;;;;;;;;;;;;13.77;63.44;99547.69;1088700;54;1349;-79
2023/10/22 18:27:41;;;;;;;;;;;;;;;13.71;63.86;99546.53;1088599;47;1309;-78
2023/10/22 18:28:42;;;;;;;;;;;;;;;13.64;64.18;99550.94;1088679;47;1015;-80
2023/10/22 18:29:45;;;;;;;;;;;;;;;13.61;63.88;99550.44;1088585;54;1038;-80
2023/10/22 18:30:46;;;;;;;;;;;;;;;13.55;64.16;99543.94;1088730;54;974;-79
2023/10/22 18:31:49;;;;;;;;;;;;;;;13.55;63.66;99550.13;1088457;54;959;-79
2023/10/22 18:32:50;;;;;;;;;;;;;;;13.59;64.01;99544.44;1088671;47;1052;-79
2023/10/22 18:33:53;;;;;;;;;;;;;;;13.50;63.83;99547.16;1088653;54;1051;-79
2023/10/22 18:34:57;;;;;;;;;;;;;;;13.50;63.53;99547.16;1088820;54;985;-79
2023/10/22 18:36:00;;;;;;;;;;;;;;;13.50;63.63;99546.31;1088578;54;1282;-80
2023/10/22 18:37:04;;;;;;;;;;;;;;;13.46;63.98;99545.81;1088345;47;1462;-79
2023/10/22 18:38:04;;;;;;;;;;;;;;;13.46;63.59;99551.19;1088036;54;1007;-79
2023/10/22 18:39:08;;;;;;;;;;;;;;;13.46;63.41;99547.69;1088349;54;1848;-79
2023/10/22 18:40:09;;;;;;;;;;;;;;;13.46;63.76;99540.47;1088350;47;1446;-80
2023/10/22 18:41:13;;;;;;;;;;;;;;;13.40;63.69;99543.84;1088126;46;1395;-80
2023/10/22 18:42:15;;;;;;;;;;;;;;;13.47;63.15;99546.66;1088447;54;1001;-80
2023/10/22 18:43:16;;;;;;;;;;;;;;;13.48;63.92;99546.50;1088457;47;1464;-80
2023/10/22 18:44:22;;;;;;;;;;;;;;;13.49;64.02;99541.94;1088479;47;1493;-80
2023/10/22 18:45:23;;;;;;;;;;;;;;;13.52;63.16;99545.13;1088136;46;1144;-80
2023/10/22 18:46:30;;;;;;;;;;;;;;;13.56;63.11;99553.66;1088126;47;1472;-80
2023/10/22 18:47:30;;;;;;;;;;;;;;;13.53;63.26;99548.66;1088336;54;1154;-80
2023/10/22 18:48:34;;;;;;;;;;;;;;;13.48;63.85;99543.81;1088194;47;1463;-80
2023/10/22 18:49:38;;;;;;;;;;;;;;;13.40;64.52;99551.91;1088437;54;1054;-80
2023/10/22 18:50:41;;;;;;;;;;;;;;;13.33;64.67;99550.88;1088233;54;999;-79
2023/10/22 18:51:42;;;;;;;;;;;;;;;13.30;64.50;99545.88;1088111;54;1007;-79
2023/10/22 18:52:45;;;;;;;;;;;;;;;13.31;64.46;99543.00;1088235;54;1047;-80
2023/10/22 18:53:46;;;;;;;;;;;;;;;13.29;64.50;99550.41;1088224;54;912;-80
2023/10/22 18:54:50;;;;;;;;;;;;;;;13.30;64.48;99546.72;1088157;47;1429;-79
2023/10/22 18:55:54;;;;;;;;;;;;;;;13.32;64.21;99555.44;1088115;47;1453;-79
2023/10/22 18:56:57;;;;;;;;;;;;;;;13.29;64.43;99552.25;1088163;47;1457;-80
2023/10/22 18:57:57;;;;;;;;;;;;;;;13.30;64.24;99546.72;1088083;54;973;-79
2023/10/22 18:59:01;;;;;;;;;;;;;;;13.34;63.77;99547.19;1088187;47;1012;-79
2023/10/22 19:00:01;;;;;;;;;;;;;;;13.34;63.86;99555.25;1088085;47;1838;-79
2023/10/22 19:01:05;;;;;;;;;;;;;;;13.35;64.34;99548.88;1088055;47;1363;-78
2023/10/22 19:02:06;;;;;;;;;;;;;;;13.31;64.53;99552.94;1088203;47;1037;-79
2023/10/22 19:03:09;;;;;;;;;;;;;;;13.28;64.73;99554.09;1088099;47;1459;-78
2023/10/22 19:04:10;;;;;;;;;;;;;;;13.25;64.54;99554.47;1088171;47;1041;-80
2023/10/22 19:05:16;;;;;;;;;;;;;;;13.24;64.72;99553.59;1088104;54;995;-79
2023/10/22 19:06:19;;;;;;;;;;;;;;;13.25;64.27;99554.47;1087904;54;1319;-79
2023/10/22 19:07:23;;;;;;;;;;;;;;;13.27;64.09;99558.63;1088108;47;1445;-80
2023/10/22 19:08:23;;;;;;;;;;;;;;;13.31;63.98;99564.50;1088147;47;1022;-79
2023/10/22 19:09:27;;;;;;;;;;;;;;;13.32;63.77;99558.13;1088167;54;1050;-80
2023/10/22 19:10:27;;;;;;;;;;;;;;;13.33;63.54;99561.63;1088161;46;1509;-79
2023/10/22 19:11:30;;;;;;;;;;;;;;;13.32;63.71;99560.78;1088137;54;965;-79
2023/10/22 19:12:32;;;;;;;;;;;;;;;13.29;63.60;99565.69;1088137;54;994;-80
2023/10/22 19:13:35;;;;;;;;;;;;;;;13.27;63.65;99561.31;1087961;54;1082;-78
2023/10/22 19:14:36;;;;;;;;;;;;;;;13.22;63.88;99566.38;1087948;54;999;-77
2023/10/22 19:15:41;;;;;;;;;;;;;;;13.22;63.92;99569.06;1087934;54;959;-77
2023/10/22 19:16:41;;;;;;;;;;;;;;;13.20;64.03;99578.28;1087876;54;1310;-77
2023/10/22 19:17:43;;;;;;;;;;;;;;;13.20;64.21;99565.72;1087903;54;1008;-77
2023/10/22 19:18:46;;;;;;;;;;;;;;;13.19;64.35;99571.25;1087979;54;1153;-76
2023/10/22 19:19:47;;;;;;;;;;;;;;;13.18;64.18;99572.25;1087943;54;1853;-77
2023/10/22 19:21:00;;;;;;;;;;;;;;;13.21;64.28;99574.59;1087946;54;992;-77
2023/10/22 19:22:01;;;;;;;;;;;;;;;13.24;64.07;99575.09;1087967;47;1041;-77
2023/10/22 19:23:03;;;;;;;;;;;;;;;13.27;63.97;99573.91;1087994;46;1035;-77
2023/10/22 19:24:07;;;;;;;;;;;;;;;13.29;64.17;99579.94;1087962;54;1062;-78
2023/10/22 19:25:08;;;;;;;;;;;;;;;13.22;64.16;99577.13;1087995;47;1034;-77
2023/10/22 19:26:12;;;;;;;;;;;;;;;13.19;64.20;99579.28;1088071;54;1340;-79
2023/10/22 19:27:13;;;;;;;;;;;;;;;13.13;64.63;99580.00;1088168;54;964;-79
2023/10/22 19:28:13;;;;;;;;;;;;;;;13.10;64.47;99579.31;1088033;54;1005;-80
2023/10/22 19:29:17;;;;;;;;;;;;;;;13.06;64.65;99585.22;1088094;54;992;-79
2023/10/22 19:30:17;;;;;;;;;;;;;;;13.03;64.86;99583.72;1088068;51;1049;-80
2023/10/22 19:31:21;;;;;;;;;;;;;;;12.99;65.02;99586.91;1088288;54;1007;-79
2023/10/22 19:32:22;;;;;;;;;;;;;;;12.91;65.29;99585.06;1088363;54;1008;-79
2023/10/22 19:33:29;;;;;;;;;;;;;;;12.87;65.81;99587.25;1088275;46;1458;-80
2023/10/22 19:34:33;;;;;;;;;;;;;;;12.85;65.83;99585.78;1088257;47;1458;-80
2023/10/22 19:35:34;;;;;;;;;;;;;;;12.84;65.59;99586.78;1088318;54;1083;-81
2023/10/22 19:36:41;;;;;;;;;;;;;;;12.83;66.04;99593.16;1088245;54;1292;-80
2023/10/22 19:37:42;;;;;;;;;;;;;;;12.80;66.12;99589.78;1088265;47;1034;-81
2023/10/22 19:38:44;;;;;;;;;;;;;;;12.87;65.62;99589.94;1088238;47;1488;-81
2023/10/22 19:39:47;;;;;;;;;;;;;;;12.89;65.89;99590.63;1088301;47;1875;-80
2023/10/22 19:40:48;;;;;;;;;;;;;;;12.89;66.10;99587.94;1088304;47;1471;-81
2023/10/22 19:41:53;;;;;;;;;;;;;;;12.91;65.79;99599.34;1088336;47;1383;-80
2023/10/22 19:42:54;;;;;;;;;;;;;;;12.94;65.59;99595.47;1088208;54;994;-80
2023/10/22 19:45:14;;;;;;;;;;;;;;;12.94;65.59;99588.25;1087926;47;944;-80
2023/10/22 19:46:15;;;;;;;;;;;;;;;12.93;65.78;99591.97;1088169;54;1631;-80
2023/10/22 19:47:19;;;;;;;;;;;;;;;12.93;65.71;99589.28;1088192;54;1196;-80
2023/10/22 19:48:20;;;;;;;;;;;;;;;12.85;66.03;99589.28;1088238;54;1001;-81
2023/10/22 19:49:24;;;;;;;;;;;;;;;12.76;66.12;99592.97;1088359;54;947;-81
2023/10/22 19:50:25;;;;;;;;;;;;;;;12.63;66.71;99594.34;1088249;54;1001;-82
2023/10/22 19:51:26;;;;;;;;;;;;;;;12.56;67.14;99595.19;1088271;54;998;-81
2023/10/22 19:52:32;;;;;;;;;;;;;;;12.52;67.17;99600.06;1088239;47;1425;-82
2023/10/22 19:53:37;;;;;;;;;;;;;;;12.47;67.16;99602.38;1088288;47;1521;-80
2023/10/22 19:54:40;;;;;;;;;;;;;;;12.43;67.60;99598.38;1088240;47;1904;-80
2023/10/22 19:55:41;;;;;;;;;;;;;;;12.46;66.92;99600.75;1088309;54;934;-81
2023/10/22 19:56:45;;;;;;;;;;;;;;;12.48;66.96;99601.38;1088214;54;1229;-80
2023/10/22 19:57:46;;;;;;;;;;;;;;;12.46;67.23;99590.84;1088275;54;1001;-81
2023/10/22 19:58:51;;;;;;;;;;;;;;;12.46;67.51;99600.75;1088284;54;938;-81
2023/10/22 19:59:51;;;;;;;;;;;;;;;12.45;67.51;99597.22;1087861;54;1844;-78
2023/10/22 20:00:55;;;;;;;;;;;;;;;12.44;67.18;99600.88;1087871;47;976;-78
2023/10/22 20:01:56;;;;;;;;;;;;;;;12.45;67.43;99601.75;1087728;54;1055;-78
2023/10/22 20:02:59;;;;;;;;;;;;;;;12.42;67.33;99602.91;1087833;54;1005;-78
2023/10/22 20:04:00;;;;;;;;;;;;;;;12.38;67.48;99601.56;1087889;47;1035;-78
2023/10/22 20:05:03;;;;;;;;;;;;;;;12.33;67.77;99604.75;1087885;54;1045;-78
2023/10/22 20:06:04;;;;;;;;;;;;;;;12.33;67.72;99598.53;1087891;54;1253;-78
2023/10/22 20:07:07;;;;;;;;;;;;;;;12.31;67.43;99604.06;1087826;54;1008;-78
2023/10/22 20:08:10;;;;;;;;;;;;;;;12.30;67.44;99599.72;1087930;47;999;-79